Time;durP1;ratioP1;P1;durP2;ratioP2;P2;SDS_P1;SDS_P2;PMS_P1;PMS_P2;Temp;Humidity;BMP_temperature;BMP_pressure;BME280_temperature;BME280_humidity;BME280_pressure;Samples;Min_cycle;Max_cycle;Signal;HPM_P1;HPM_P2
2020/12/21 00:01:41;;;;;;;5.97;3.58;;;;;;;;;;4334647;32;19980;-64
2020/12/21 00:04:07;;;;;;;4.97;3.40;;;;;;;;;;4323664;32;20062;-65
2020/12/21 00:06:33;;;;;;;;;;;;;;;;;;4335116;33;20070;-65
2020/12/21 00:09:04;;;;;;;6.82;3.80;;;;;;;;;;4322973;33;20038;-64
2020/12/21 00:11:34;;;;;;;6.95;3.42;;;;;;;;;;4322855;33;20079;-65
2020/12/21 00:13:59;;;;;;;5.87;3.72;;;;;;;;;;4334997;33;20067;-65
2020/12/21 00:16:25;;;;;;;;;;;;;;;;;;4332537;33;20071;-65
2020/12/21 00:18:51;;;;;;;5.87;3.80;;;;;;;;;;4333953;33;20062;-64
2020/12/21 00:21:17;;;;;;;5.85;3.55;;;;;;;;;;4332185;33;20087;-65
2020/12/21 00:23:43;;;;;;;6.00;3.70;;;;;;;;;;4332344;33;20086;-63
2020/12/21 00:26:09;;;;;;;;;;;;;;;;;;4344730;33;20074;-64
2020/12/21 00:28:35;;;;;;;6.62;3.97;;;;;;;;;;4332271;33;19978;-65
2020/12/21 00:31:01;;;;;;;7.72;4.25;;;;;;;;;;4342158;33;20156;-63
2020/12/21 00:33:30;;;;;;;;;;;;;;;;;;4347125;33;20086;-64
2020/12/21 00:35:55;;;;;;;6.50;3.80;;;;;;;;;;4346972;33;19966;-64
2020/12/21 00:38:22;;;;;;;5.57;3.47;;;;;;;;;;4346739;33;20457;-64
2020/12/21 00:40:47;;;;;;;;;;;;;;;;;;4346915;33;20066;-63
2020/12/21 00:43:13;;;;;;;6.00;4.15;;;;;;;;;;4358749;32;19974;-64
2020/12/21 00:45:39;;;;;;;;;;;;;;;;;;4347039;33;20086;-63
2020/12/21 00:48:05;;;;;;;5.05;3.53;;;;;;;;;;4347988;32;19973;-64
2020/12/21 00:50:31;;;;;;;6.68;4.45;;;;;;;;;;4347037;33;20179;-64
2020/12/21 00:52:57;;;;;;;;;;;;;;;;;;4334843;33;20513;-64
2020/12/21 00:55:23;;;;;;;7.50;4.15;;;;;;;;;;4346989;33;19966;-64
2020/12/21 00:57:49;;;;;;;5.03;3.78;;;;;;;;;;4334069;33;20089;-65
2020/12/21 01:00:15;;;;;;;;;;;;;;;;;;4346708;33;20460;-64
2020/12/21 01:02:40;;;;;;;5.60;3.60;;;;;;;;;;4358682;32;19981;-63
2020/12/21 01:05:07;;;;;;;7.80;3.58;;;;;;;;;;4346941;32;20067;-64
2020/12/21 01:07:34;;;;;;;6.35;3.67;;;;;;;;;;4331567;33;20091;-65
2020/12/21 01:10:00;;;;;;;;;;;;;;;;;;4332128;33;20438;-63
2020/12/21 01:12:27;;;;;;;6.07;3.80;;;;;;;;;;4331825;33;20365;-64
2020/12/21 01:14:53;;;;;;;5.97;3.67;;;;;;;;;;4318954;33;20112;-65
2020/12/21 01:17:18;;;;;;;;;;;;;;;;;;4346512;33;20510;-65
2020/12/21 01:19:44;;;;;;;7.87;4.30;;;;;;;;;;4347770;33;19971;-64
2020/12/21 01:22:10;;;;;;;;;;;;;;;;;;4334266;33;20184;-63
2020/12/21 01:24:38;;;;;;;6.68;3.92;;;;;;;;;;4347323;33;19977;-64
2020/12/21 01:27:06;;;;;;;5.75;3.90;;;;;;;;;;4334897;33;20086;-65
2020/12/21 01:29:32;;;;;;;6.45;3.85;;;;;;;;;;4333963;33;20149;-65
2020/12/21 01:31:58;;;;;;;;;;;;;;;;;;4345749;33;20468;-64
2020/12/21 01:34:24;;;;;;;7.03;3.75;;;;;;;;;;4346082;33;20400;-63
2020/12/21 01:36:49;;;;;;;;;;;;;;;;;;4347943;33;20078;-64
2020/12/21 01:39:16;;;;;;;6.93;4.10;;;;;;;;;;4347858;33;19998;-64
2020/12/21 01:41:42;;;;;;;5.75;3.90;;;;;;;;;;4346023;33;20079;-64
2020/12/21 01:44:08;;;;;;;7.90;4.30;;;;;;;;;;4333812;33;20501;-65
2020/12/21 01:46:34;;;;;;;;;;;;;;;;;;4334024;33;20071;-63
2020/12/21 01:49:00;;;;;;;6.82;4.20;;;;;;;;;;4347850;33;20437;-64
2020/12/21 01:51:27;;;;;;;6.15;4.10;;;;;;;;;;4346258;33;20083;-64
2020/12/21 01:53:54;;;;;;;6.45;4.37;;;;;;;;;;4333503;33;20082;-64
2020/12/21 01:56:20;;;;;;;5.70;3.70;;;;;;;;;;4346239;33;20088;-64
2020/12/21 01:58:47;;;;;;;7.57;4.00;;;;;;;;;;4345550;33;20101;-65
2020/12/21 02:01:14;;;;;;;7.22;4.30;;;;;;;;;;4333255;33;20063;-64
2020/12/21 02:03:40;;;;;;;6.10;3.85;;;;;;;;;;4345534;33;20070;-64
2020/12/21 02:06:06;;;;;;;6.07;4.45;;;;;;;;;;4332431;33;20077;-65
2020/12/21 02:08:32;;;;;;;7.00;4.37;;;;;;;;;;4346862;33;20079;-64
2020/12/21 02:11:01;;;;;;;;;;;;;;;;;;4333702;33;20240;-64
2020/12/21 02:13:27;;;;;;;6.50;3.85;;;;;;;;;;4345431;33;20337;-64
2020/12/21 02:15:53;;;;;;;;;;;;;;;;;;4352688;32;20163;-65
2020/12/21 02:18:19;;;;;;;6.22;4.20;;;;;;;;;;4336110;32;19977;-65
2020/12/21 02:20:46;;;;;;;6.97;4.12;;;;;;;;;;4347811;32;20151;-64
2020/12/21 02:23:12;;;;;;;6.80;3.85;;;;;;;;;;4360368;32;20433;-65
2020/12/21 02:25:38;;;;;;;;;;;;;;;;;;4361163;32;20159;-64
2020/12/21 02:28:04;;;;;;;7.13;4.37;;;;;;;;;;4361832;32;19977;-64
2020/12/21 02:30:30;;;;;;;;;;;;;;;;;;4348953;32;20075;-64
2020/12/21 02:32:55;;;;;;;6.87;4.47;;;;;;;;;;4346604;33;19966;-64
2020/12/21 02:35:21;;;;;;;;;;;;;;;;;;4344855;33;20164;-64
2020/12/21 02:37:47;;;;;;;7.05;4.12;;;;;;;;;;4357478;32;19993;-64
2020/12/21 02:40:13;;;;;;;;;;;;;;;;;;4347018;33;20530;-64
2020/12/21 02:42:39;;;;;;;6.55;4.12;;;;;;;;;;4357487;32;19978;-63
2020/12/21 02:45:06;;;;;;;8.30;4.18;;;;;;;;;;4346127;32;20082;-64
2020/12/21 02:47:32;;;;;;;6.12;4.37;;;;;;;;;;4345749;33;20079;-63
2020/12/21 02:50:00;;;;;;;7.28;4.10;;;;;;;;;;4346619;33;20177;-64
2020/12/21 02:52:30;;;;;;;6.40;3.80;;;;;;;;;;4346311;33;20161;-64
2020/12/21 02:54:55;;;;;;;7.70;4.32;;;;;;;;;;4332499;33;20077;-64
2020/12/21 02:57:22;;;;;;;;;;;;;;;;;;4332815;33;20082;-63
2020/12/21 02:59:48;;;;;;;6.97;4.45;;;;;;;;;;4357580;32;19970;-64
2020/12/21 03:02:13;;;;;;;6.45;4.20;;;;;;;;;;4320577;33;20503;-64
2020/12/21 03:04:39;;;;;;;;;;;;;;;;;;4345340;33;20497;-65
2020/12/21 03:07:04;;;;;;;7.10;4.22;;;;;;;;;;4373223;32;19977;-64
2020/12/21 03:09:30;;;;;;;;;;;;;;;;;;4362470;32;20078;-65
2020/12/21 03:11:56;;;;;;;6.40;3.97;;;;;;;;;;4376413;32;20042;-65
2020/12/21 03:14:22;;;;;;;;;;;;;;;;;;4376558;32;20070;-65
2020/12/21 03:16:48;;;;;;;8.27;4.40;;;;;;;;;;4359831;32;20071;-65
2020/12/21 03:19:14;;;;;;;6.00;4.00;;;;;;;;;;4347373;32;20100;-65
2020/12/21 03:21:39;;;;;;;;;;;;;;;;;;4334963;32;20540;-64
2020/12/21 03:24:05;;;;;;;7.47;4.50;;;;;;;;;;4347208;32;19962;-65
2020/12/21 03:26:33;;;;;;;6.43;4.80;;;;;;;;;;4361000;32;20167;-64
2020/12/21 03:28:59;;;;;;;;;;;;;;;;;;4360422;32;20074;-64
2020/12/21 03:31:24;;;;;;;6.60;4.43;;;;;;;;;;4335526;33;19978;-64
2020/12/21 03:33:50;;;;;;;8.18;5.10;;;;;;;;;;4332595;33;20170;-64
2020/12/21 03:36:17;;;;;;;7.43;4.35;;;;;;;;;;4332818;32;20134;-65
2020/12/21 03:38:43;;;;;;;;;;;;;;;;;;4349271;33;20085;-64
2020/12/21 03:41:09;;;;;;;9.55;4.82;;;;;;;;;;4349073;32;19994;-65
2020/12/21 03:43:36;;;;;;;;;;;;;;;;;;4335912;33;20469;-63
2020/12/21 03:46:01;;;;;;;7.47;5.62;;;;;;;;;;4347509;32;19978;-65
2020/12/21 03:48:28;;;;;;;;;;;;;;;;;;4349253;33;20095;-64
2020/12/21 03:50:54;;;;;;;7.50;5.37;;;;;;;;;;4348775;32;19969;-64
2020/12/21 03:53:20;;;;;;;7.82;5.07;;;;;;;;;;4334921;33;20102;-65
2020/12/21 03:55:45;;;;;;;;;;;;;;;;;;4348899;33;20078;-65
2020/12/21 03:58:11;;;;;;;6.85;4.57;;;;;;;;;;4347538;33;20348;-64
2020/12/21 04:00:37;;;;;;;8.82;5.07;;;;;;;;;;4347214;33;20106;-64
2020/12/21 04:03:02;;;;;;;;;;;;;;;;;;4347844;33;20497;-65
2020/12/21 04:05:29;;;;;;;6.90;4.40;;;;;;;;;;4348635;33;19978;-64
2020/12/21 04:07:54;;;;;;;7.53;4.43;;;;;;;;;;4348201;33;20093;-64
2020/12/21 04:10:21;;;;;;;6.37;4.18;;;;;;;;;;4334652;33;20131;-64
2020/12/21 04:12:47;;;;;;;7.05;4.03;;;;;;;;;;4334932;33;20082;-64
2020/12/21 04:15:14;;;;;;;7.20;4.47;;;;;;;;;;4336962;32;20134;-64
2020/12/21 04:17:39;;;;;;;;;;;;;;;;;;4337658;32;20071;-64
2020/12/21 04:20:06;;;;;;;7.57;4.40;;;;;;;;;;4363423;32;19989;-65
2020/12/21 04:22:33;;;;;;;7.50;4.20;;;;;;;;;;4337599;32;20075;-64
2020/12/21 04:25:01;;;;;;;7.47;4.37;;;;;;;;;;4363133;32;20078;-65
2020/12/21 04:27:28;;;;;;;7.87;4.30;;;;;;;;;;4349556;32;20096;-65
2020/12/21 04:29:54;;;;;;;6.70;4.30;;;;;;;;;;4347024;32;20532;-63
2020/12/21 04:32:20;;;;;;;7.30;4.70;;;;;;;;;;4347022;33;20102;-65
2020/12/21 04:34:46;;;;;;;7.60;4.45;;;;;;;;;;4334715;33;20082;-64
2020/12/21 04:37:12;;;;;;;;;;;;;;;;;;4348297;33;20070;-62
2020/12/21 04:39:38;;;;;;;6.05;3.30;;;;;;;;;;4334156;33;20374;-65
2020/12/21 04:42:06;;;;;;;5.95;3.70;;;;;;;;;;4348214;33;20175;-64
2020/12/21 04:44:32;;;;;;;5.97;3.22;;;;;;;;;;4334924;33;20106;-64
2020/12/21 04:46:57;;;;;;;;;;;;;;;;;;4334890;33;20482;-65
2020/12/21 04:49:24;;;;;;;6.22;3.90;;;;;;;;;;4333987;33;19962;-63
2020/12/21 04:51:50;;;;;;;5.45;3.53;;;;;;;;;;4334220;33;20067;-65
2020/12/21 04:54:19;;;;;;;;;;;;;;;;;;4334262;33;20085;-63
2020/12/21 04:56:46;;;;;;;7.20;4.50;;;;;;;;;;4348372;33;20025;-65
2020/12/21 04:59:12;;;;;;;5.80;3.62;;;;;;;;;;4356678;32;20086;-64
2020/12/21 05:01:38;;;;;;;8.55;4.22;;;;;;;;;;4337157;32;20101;-65
2020/12/21 05:04:04;;;;;;;5.80;3.47;;;;;;;;;;4336413;32;20162;-64
2020/12/21 05:06:30;;;;;;;;;;;;;;;;;;4339770;33;20493;-66
2020/12/21 05:09:07;;;;;;;6.37;3.37;;;;;;;;;;4347693;33;19978;-65
2020/12/21 05:11:34;;;;;;;6.75;4.45;;;;;;;;;;4333817;33;20547;-63
2020/12/21 05:14:09;;;;;;;7.18;4.25;;;;;;;;;;4334062;33;20146;-64
2020/12/21 05:16:35;;;;;;;6.40;4.33;;;;;;;;;;4321618;33;20502;-64
2020/12/21 05:19:01;;;;;;;6.62;3.97;;;;;;;;;;4334016;33;20070;-64
2020/12/21 05:21:27;;;;;;;6.75;4.10;;;;;;;;;;4321395;33;20097;-64
2020/12/21 05:24:09;;;;;;;8.25;4.03;;;;;;;;;;4333973;33;20075;-64
2020/12/21 05:26:35;;;;;;;7.97;4.50;;;;;;;;;;4346256;33;20475;-63
2020/12/21 05:29:00;;;;;;;;;;;;;;;;;;4334136;33;20093;-64
2020/12/21 05:31:26;;;;;;;8.65;4.50;;;;;;;;;;4333973;33;20060;-65
2020/12/21 05:33:52;;;;;;;6.53;4.07;;;;;;;;;;4333619;33;20095;-64
2020/12/21 05:36:20;;;;;;;6.70;3.92;;;;;;;;;;4333030;33;20086;-64
2020/12/21 05:38:59;;;;;;;7.43;4.40;;;;;;;;;;4333723;33;20077;-63
2020/12/21 05:41:28;;;;;;;6.15;3.80;;;;;;;;;;4333621;33;20080;-64
2020/12/21 05:43:56;;;;;;;7.32;4.30;;;;;;;;;;4333460;33;20063;-64
2020/12/21 05:46:23;;;;;;;7.87;4.75;;;;;;;;;;4333596;33;20158;-64
2020/12/21 05:48:50;;;;;;;6.55;3.70;;;;;;;;;;4334157;33;20078;-64
2020/12/21 05:51:49;;;;;;;7.25;4.15;;;;;;;;;;4333445;33;20445;-64
2020/12/21 05:54:15;;;;;;;6.90;4.72;;;;;;;;;;4334323;33;20101;-64
2020/12/21 05:56:42;;;;;;;;;;;;;;;;;;4321289;33;20486;-65
2020/12/21 05:59:07;;;;;;;9.07;4.47;;;;;;;;;;4333404;33;19972;-65
2020/12/21 06:01:36;;;;;;;;;;;;;;;;;;4333685;33;20071;-63
2020/12/21 06:04:12;;;;;;;7.70;4.50;;;;;;;;;;4333362;33;19972;-64
2020/12/21 06:06:38;;;;;;;9.38;4.45;;;;;;;;;;4342188;33;20067;-63
2020/12/21 06:09:05;;;;;;;7.65;4.55;;;;;;;;;;4333521;33;20094;-65
2020/12/21 06:11:34;;;;;;;6.90;4.18;;;;;;;;;;4320847;33;20162;-64
2020/12/21 06:14:19;;;;;;;7.30;4.30;;;;;;;;;;4320845;33;20075;-65
2020/12/21 06:16:47;;;;;;;8.20;4.47;;;;;;;;;;4333225;33;20082;-65
2020/12/21 06:19:26;;;;;;;7.05;4.20;;;;;;;;;;4333610;33;20130;-63
2020/12/21 06:21:53;;;;;;;8.38;4.70;;;;;;;;;;4344954;33;20155;-63
2020/12/21 06:24:23;;;;;;;7.28;4.40;;;;;;;;;;4345510;33;20075;-63
2020/12/21 06:26:51;;;;;;;8.05;4.03;;;;;;;;;;4345256;33;20146;-64
2020/12/21 06:29:25;;;;;;;8.13;4.07;;;;;;;;;;4345139;33;20082;-62
2020/12/21 06:32:14;;;;;;;7.90;4.87;;;;;;;;;;4374179;32;20101;-63
2020/12/21 06:34:43;;;;;;;9.60;5.03;;;;;;;;;;4374075;32;20228;-62
2020/12/21 06:37:19;;;;;;;7.43;4.70;;;;;;;;;;4352151;32;20456;-62
2020/12/21 06:39:59;;;;;;;6.78;4.22;;;;;;;;;;4363163;32;20445;-61
2020/12/21 06:42:27;;;;;;;8.23;4.90;;;;;;;;;;4351227;32;20137;-62
2020/12/21 06:44:57;;;;;;;7.65;4.12;;;;;;;;;;4363034;32;20472;-64
2020/12/21 06:47:26;;;;;;;8.50;5.10;;;;;;;;;;4362042;32;20467;-62
2020/12/21 06:49:58;;;;;;;9.10;4.60;;;;;;;;;;4363110;32;20078;-62
2020/12/21 06:52:28;;;;;;;7.65;4.30;;;;;;;;;;4338613;32;20152;-62
2020/12/21 06:54:57;;;;;;;7.65;4.35;;;;;;;;;;4350688;32;20162;-61
2020/12/21 06:57:30;;;;;;;6.68;4.57;;;;;;;;;;4338179;32;20094;-62
2020/12/21 06:59:59;;;;;;;8.30;4.53;;;;;;;;;;4338220;32;20497;-62
2020/12/21 07:02:25;;;;;;;6.53;4.22;;;;;;;;;;4374082;32;20154;-62
2020/12/21 07:05:07;;;;;;;6.68;4.30;;;;;;;;;;4361137;32;20496;-63
2020/12/21 07:07:47;;;;;;;6.53;4.25;;;;;;;;;;4305461;32;20623;-61
2020/12/21 12:04:34;;;;;;;9.20;4.82;;;;;;;;;;3843287;37;20066;-65
2020/12/21 12:07:02;;;;;;;9.18;4.47;;;;;;;;;;4408759;32;20077;-65
2020/12/21 12:09:28;;;;;;;8.50;5.07;;;;;;;;;;4388014;32;20093;-67
2020/12/21 12:11:54;;;;;;;8.32;4.37;;;;;;;;;;4388085;32;20120;-66
2020/12/21 12:14:20;;;;;;;8.30;5.20;;;;;;;;;;4389423;32;20070;-70
2020/12/21 12:16:47;;;;;;;8.23;4.90;;;;;;;;;;4372473;32;20219;-68
2020/12/21 12:19:13;;;;;;;7.25;4.97;;;;;;;;;;4394766;32;20103;-66
2020/12/21 12:21:39;;;;;;;8.27;4.97;;;;;;;;;;4401154;32;20495;-66
2020/12/21 12:24:04;;;;;;;9.00;4.80;;;;;;;;;;4410530;32;20170;-66
2020/12/21 12:26:30;;;;;;;8.35;5.20;;;;;;;;;;4392072;32;20084;-68
2020/12/21 12:28:56;;;;;;;8.85;5.03;;;;;;;;;;4395529;32;20220;-66
2020/12/21 12:31:22;;;;;;;7.00;4.62;;;;;;;;;;4400697;32;20085;-67
2020/12/21 12:33:48;;;;;;;9.18;4.95;;;;;;;;;;4389752;32;20095;-66
2020/12/21 12:36:22;;;;;;;7.55;4.78;;;;;;;;;;4394516;32;20443;-67
2020/12/21 12:38:47;;;;;;;8.88;5.37;;;;;;;;;;4413956;32;20113;-67
2020/12/21 12:41:13;;;;;;;9.23;4.82;;;;;;;;;;4401969;32;20070;-66
2020/12/21 12:43:39;;;;;;;8.30;4.93;;;;;;;;;;4367708;32;20085;-65
2020/12/21 12:46:05;;;;;;;7.85;4.70;;;;;;;;;;4414725;32;20078;-69
2020/12/21 12:48:31;;;;;;;7.00;4.82;;;;;;;;;;4390464;32;20162;-67
2020/12/21 12:50:57;;;;;;;8.15;5.05;;;;;;;;;;4391213;32;20168;-70
2020/12/21 12:53:23;;;;;;;;;;;;;;;;;;4392227;32;20182;-66
2020/12/21 12:55:48;;;;;;;8.63;4.95;;;;;;;;;;4417583;32;20443;-66
2020/12/21 12:58:14;;;;;;;;;;;;;;;;;;4390749;32;20078;-69
2020/12/21 13:00:40;;;;;;;7.87;4.93;;;;;;;;;;4411232;32;20011;-66
2020/12/21 13:03:06;;;;;;;8.68;5.53;;;;;;;;;;4396811;32;20073;-68
2020/12/21 13:05:32;;;;;;;;;;;;;;;;;;4390905;32;20077;-68
2020/12/21 13:07:58;;;;;;;7.90;4.80;;;;;;;;;;4404416;32;19984;-68
2020/12/21 13:10:24;;;;;;;9.90;5.18;;;;;;;;;;4385875;32;20066;-69
2020/12/21 13:12:50;;;;;;;;;;;;;;;;;;4388444;32;20092;-67
2020/12/21 13:15:15;;;;;;;7.95;5.55;;;;;;;;;;4403394;32;20334;-67
2020/12/21 13:17:41;;;;;;;9.50;5.37;;;;;;;;;;4383053;32;20069;-68
2020/12/21 13:20:07;;;;;;;11.18;5.40;;;;;;;;;;4381737;32;20070;-68
2020/12/21 13:22:32;;;;;;;;;;;;;;;;;;4394860;32;20093;-68
2020/12/21 13:24:58;;;;;;;10.85;5.25;;;;;;;;;;4395360;32;19988;-67
2020/12/21 13:27:24;;;;;;;9.85;5.10;;;;;;;;;;4373224;32;20097;-69
2020/12/21 13:29:50;;;;;;;;;;;;;;;;;;4404187;32;20089;-71
2020/12/21 13:32:15;;;;;;;9.55;5.07;;;;;;;;;;4406082;32;19965;-69
2020/12/21 13:34:41;;;;;;;9.07;4.85;;;;;;;;;;4393564;32;20267;-67
2020/12/21 13:37:07;;;;;;;9.20;5.22;;;;;;;;;;4388805;32;20458;-68
2020/12/21 13:39:33;;;;;;;9.82;5.35;;;;;;;;;;4384363;32;20065;-68
2020/12/21 13:42:00;;;;;;;8.23;5.22;;;;;;;;;;4373162;32;20062;-70
2020/12/21 13:44:26;;;;;;;10.05;5.65;;;;;;;;;;4387832;32;20146;-68
2020/12/21 13:46:52;;;;;;;9.38;4.95;;;;;;;;;;4404058;32;20529;-66
2020/12/21 13:49:18;;;;;;;8.63;5.22;;;;;;;;;;4395413;32;20504;-66
2020/12/21 13:51:44;;;;;;;;;;;;;;;;;;4391107;32;20141;-71
2020/12/21 13:54:09;;;;;;;7.65;4.32;;;;;;;;;;4400416;32;20122;-70
2020/12/21 13:56:35;;;;;;;8.75;4.87;;;;;;;;;;4406682;32;20483;-68
2020/12/21 13:59:01;;;;;;;8.20;4.40;;;;;;;;;;4405865;32;20146;-69
2020/12/21 14:01:28;;;;;;;9.27;5.12;;;;;;;;;;4388430;32;20503;-68
2020/12/21 14:03:54;;;;;;;10.60;5.75;;;;;;;;;;4368631;32;20062;-71
2020/12/21 14:06:20;;;;;;;13.13;8.60;;;;;;;;;;4383226;32;20097;-71
2020/12/21 14:08:46;;;;;;;10.85;5.53;;;;;;;;;;4406096;32;20111;-69
2020/12/21 14:11:13;;;;;;;;;;;;;;;;;;4403364;32;20085;-71
2020/12/21 14:13:39;;;;;;;11.85;6.55;;;;;;;;;;4380236;32;19977;-70
2020/12/21 14:16:14;;;;;;;;;;;;;;;;;;4401739;32;20154;-66
2020/12/21 14:18:50;;;;;;;10.20;5.65;;;;;;;;;;4381892;32;20001;-74
2020/12/21 14:21:16;;;;;;;9.98;5.25;;;;;;;;;;4387524;32;20097;-73
2020/12/21 14:23:42;;;;;;;11.18;6.05;;;;;;;;;;4382754;32;20095;-66
2020/12/21 14:26:08;;;;;;;;;;;;;;;;;;4394485;32;20135;-71
2020/12/21 14:28:34;;;;;;;12.45;6.62;;;;;;;;;;4396423;32;19992;-70
2020/12/21 14:31:00;;;;;;;11.35;5.95;;;;;;;;;;4379444;32;20460;-70
2020/12/21 14:33:28;;;;;;;11.60;6.30;;;;;;;;;;4376050;32;20074;-66
2020/12/21 14:35:55;;;;;;;12.23;6.50;;;;;;;;;;4366933;32;20066;-70
2020/12/21 14:38:21;;;;;;;11.75;6.05;;;;;;;;;;4388561;32;20077;-70
2020/12/21 14:40:47;;;;;;;11.95;6.20;;;;;;;;;;4383137;32;20504;-71
2020/12/21 14:43:13;;;;;;;12.07;6.35;;;;;;;;;;4404148;32;20104;-72
2020/12/21 14:45:41;;;;;;;9.63;6.30;;;;;;;;;;4389598;32;20113;-72
2020/12/21 14:48:07;;;;;;;;;;;;;;;;;;4393704;32;20070;-72
2020/12/21 14:50:33;;;;;;;12.30;6.55;;;;;;;;;;4391166;32;20410;-72
2020/12/21 14:52:59;;;;;;;11.95;6.07;;;;;;;;;;4378189;32;20066;-72
2020/12/21 14:55:24;;;;;;;;;;;;;;;;;;4391152;32;20150;-72
2020/12/21 14:57:50;;;;;;;11.38;6.15;;;;;;;;;;4366222;32;19981;-71
2020/12/21 15:00:16;;;;;;;13.38;6.25;;;;;;;;;;4392328;32;20121;-72
2020/12/21 15:02:42;;;;;;;12.25;6.43;;;;;;;;;;4407746;32;20092;-71
2020/12/21 15:05:08;;;;;;;11.38;5.55;;;;;;;;;;4426632;32;20570;-72
2020/12/21 15:07:42;;;;;;;11.00;5.55;;;;;;;;;;4426163;32;20495;-71
2020/12/21 15:10:09;;;;;;;11.88;5.93;;;;;;;;;;4396749;32;20442;-72
2020/12/21 15:12:35;;;;;;;10.05;4.37;;;;;;;;;;4369423;32;20080;-71
2020/12/21 15:15:08;;;;;;;10.15;5.03;;;;;;;;;;4383506;32;20062;-71
2020/12/21 15:17:34;;;;;;;10.85;4.85;;;;;;;;;;4396150;32;20080;-72
2020/12/21 15:19:59;;;;;;;12.77;6.47;;;;;;;;;;4396047;32;20522;-71
2020/12/21 15:22:25;;;;;;;;;;;;;;;;;;4395627;32;20171;-71
2020/12/21 15:24:51;;;;;;;11.00;6.50;;;;;;;;;;4422038;32;20389;-71
2020/12/21 15:27:17;;;;;;;11.35;6.78;;;;;;;;;;4408301;32;20514;-72
2020/12/21 15:29:42;;;;;;;;;;;;;;;;;;4395723;32;20077;-71
2020/12/21 15:32:08;;;;;;;11.57;6.40;;;;;;;;;;4408434;32;19984;-72
2020/12/21 15:34:34;;;;;;;11.15;6.30;;;;;;;;;;4422475;32;20512;-72
2020/12/21 15:36:59;;;;;;;;;;;;;;;;;;4423785;32;20157;-72
2020/12/21 15:39:25;;;;;;;11.77;6.40;;;;;;;;;;4410980;32;20167;-71
2020/12/21 15:41:51;;;;;;;;;;;;;;;;;;4410799;32;20073;-73
2020/12/21 15:44:16;;;;;;;11.15;6.47;;;;;;;;;;4423591;32;19964;-72
2020/12/21 15:46:42;;;;;;;;;;;;;;;;;;4409993;32;20180;-72
2020/12/21 15:49:08;;;;;;;11.40;6.10;;;;;;;;;;4397227;32;19975;-72
2020/12/21 15:51:34;;;;;;;10.02;5.57;;;;;;;;;;4412504;32;20091;-72
2020/12/21 15:53:59;;;;;;;;;;;;;;;;;;4414655;32;20127;-72
2020/12/21 15:56:25;;;;;;;10.85;6.05;;;;;;;;;;4416929;32;19980;-72
2020/12/21 15:58:50;;;;;;;;;;;;;;;;;;4391872;32;20080;-72
2020/12/21 16:01:16;;;;;;;11.40;6.28;;;;;;;;;;4398044;32;19978;-72
2020/12/21 16:03:42;;;;;;;11.80;6.30;;;;;;;;;;4398469;32;20074;-72
2020/12/21 16:06:08;;;;;;;;;;;;;;;;;;4418302;32;20069;-71
2020/12/21 16:08:34;;;;;;;11.68;6.62;;;;;;;;;;4412790;32;19985;-72
2020/12/21 16:11:00;;;;;;;10.40;6.68;;;;;;;;;;4401777;32;20077;-72
2020/12/21 16:13:26;;;;;;;13.30;6.55;;;;;;;;;;4386992;32;20079;-72
2020/12/21 16:15:51;;;;;;;;;;;;;;;;;;4413067;32;20108;-72
2020/12/21 16:18:17;;;;;;;14.60;6.30;;;;;;;;;;4415204;32;19973;-72
2020/12/21 16:20:44;;;;;;;10.93;5.62;;;;;;;;;;4390139;32;20081;-72
2020/12/21 16:23:10;;;;;;;11.77;5.93;;;;;;;;;;4371453;32;20170;-72
2020/12/21 16:25:36;;;;;;;13.15;6.12;;;;;;;;;;4408291;32;20076;-73
2020/12/21 16:28:01;;;;;;;;;;;;;;;;;;4408970;32;20065;-71
2020/12/21 16:30:27;;;;;;;10.27;5.87;;;;;;;;;;4411127;32;19972;-72
2020/12/21 16:32:53;;;;;;;11.10;5.93;;;;;;;;;;4408246;32;20562;-72
2020/12/21 16:35:19;;;;;;;9.48;5.55;;;;;;;;;;4397104;32;20077;-71
2020/12/21 16:37:44;;;;;;;10.45;5.62;;;;;;;;;;4408499;32;20082;-72
2020/12/21 16:40:13;;;;;;;11.38;6.05;;;;;;;;;;4408978;32;20089;-72
2020/12/21 16:42:41;;;;;;;;;;;;;;;;;;4412205;32;20088;-72
2020/12/21 16:45:07;;;;;;;11.93;6.12;;;;;;;;;;4416301;32;19971;-72
2020/12/21 16:47:32;;;;;;;;;;;;;;;;;;4414608;32;20077;-72
2020/12/21 16:49:58;;;;;;;9.25;5.43;;;;;;;;;;4427701;32;20041;-72
2020/12/21 16:52:24;;;;;;;9.32;6.10;;;;;;;;;;4427976;32;20061;-73
2020/12/21 16:54:49;;;;;;;;;;;;;;;;;;4413020;32;20077;-72
2020/12/21 16:57:15;;;;;;;10.48;6.12;;;;;;;;;;4400221;32;19980;-73
2020/12/21 16:59:40;;;;;;;;;;;;;;;;;;4425375;32;20266;-74
2020/12/21 17:02:06;;;;;;;10.70;5.30;;;;;;;;;;4424497;32;19975;-72
2020/12/21 17:04:32;;;;;;;;;;;;;;;;;;4410982;32;20097;-72
2020/12/21 17:07:00;;;;;;;10.05;5.55;;;;;;;;;;4398272;32;19983;-73
2020/12/21 17:09:32;;;;;;;11.02;6.28;;;;;;;;;;4386365;32;20077;-72
2020/12/21 17:12:00;;;;;;;11.23;5.70;;;;;;;;;;4410087;32;20081;-71
2020/12/21 17:14:29;;;;;;;10.95;5.80;;;;;;;;;;4410502;32;20072;-73
2020/12/21 17:16:56;;;;;;;9.57;5.05;;;;;;;;;;4397680;32;20070;-72
2020/12/21 17:19:22;;;;;;;14.30;5.87;;;;;;;;;;4386792;32;20076;-72
2020/12/21 17:21:48;;;;;;;;;;;;;;;;;;4408970;32;20077;-72
2020/12/21 17:24:14;;;;;;;10.35;5.18;;;;;;;;;;4400261;32;20374;-73
2020/12/21 17:26:39;;;;;;;;;;;;;;;;;;4397751;32;20088;-72
2020/12/21 17:29:05;;;;;;;10.73;5.60;;;;;;;;;;4409916;32;19984;-72
2020/12/21 17:31:31;;;;;;;10.73;5.62;;;;;;;;;;4384779;32;20133;-72
2020/12/21 17:33:57;;;;;;;;;;;;;;;;;;4410066;32;20252;-71
2020/12/21 17:36:23;;;;;;;11.07;5.68;;;;;;;;;;4409849;32;20053;-72
2020/12/21 17:38:48;;;;;;;10.57;6.50;;;;;;;;;;4398441;32;20515;-74
2020/12/21 17:41:15;;;;;;;;;;;;;;;;;;4387497;32;20141;-72
2020/12/21 17:43:41;;;;;;;10.80;6.15;;;;;;;;;;4398678;32;19952;-73
2020/12/21 17:46:07;;;;;;;10.40;6.25;;;;;;;;;;4383627;32;20204;-72
2020/12/21 17:48:32;;;;;;;;;;;;;;;;;;4410047;32;20088;-72
2020/12/21 17:50:58;;;;;;;10.63;5.90;;;;;;;;;;4409501;32;19995;-72
2020/12/21 17:53:44;;;;;;;;;;;;;;;;;;4398567;32;20156;-71
2020/12/21 17:56:10;;;;;;;10.95;5.55;;;;;;;;;;4396783;32;19967;-71
2020/12/21 17:58:35;;;;;;;;;;;;;;;;;;4396886;32;20066;-72
2020/12/21 18:01:01;;;;;;;9.90;5.68;;;;;;;;;;4409392;32;20044;-72
2020/12/21 18:03:27;;;;;;;10.18;5.15;;;;;;;;;;4408856;32;20503;-72
2020/12/21 18:05:57;;;;;;;;;;;;;;;;;;4410321;32;20074;-72
2020/12/21 18:08:23;;;;;;;10.65;5.60;;;;;;;;;;4384308;32;20418;-72
2020/12/21 18:10:49;;;;;;;9.75;5.93;;;;;;;;;;4397295;32;20057;-71
2020/12/21 18:13:15;;;;;;;11.30;5.25;;;;;;;;;;4409154;32;20157;-72
2020/12/21 18:15:41;;;;;;;;;;;;;;;;;;4384367;32;20081;-73
2020/12/21 18:18:06;;;;;;;9.45;5.43;;;;;;;;;;4396937;32;19983;-72
2020/12/21 18:20:32;;;;;;;;;;;;;;;;;;4423043;32;20150;-73
2020/12/21 18:22:58;;;;;;;9.90;5.57;;;;;;;;;;4408634;32;19972;-72
2020/12/21 18:25:24;;;;;;;;;;;;;;;;;;4384186;32;20060;-72
2020/12/21 18:27:49;;;;;;;10.85;5.90;;;;;;;;;;4409143;32;19964;-72
2020/12/21 18:30:15;;;;;;;10.55;5.97;;;;;;;;;;4396207;32;20185;-72
2020/12/21 18:32:41;;;;;;;9.70;5.97;;;;;;;;;;4396189;32;20103;-71
2020/12/21 18:35:06;;;;;;;;;;;;;;;;;;4408967;32;20590;-73
2020/12/21 18:37:34;;;;;;;9.25;5.60;;;;;;;;;;4408895;32;20413;-73
2020/12/21 18:40:00;;;;;;;10.10;5.10;;;;;;;;;;4396551;32;20087;-72
2020/12/21 18:42:25;;;;;;;;;;;;;;;;;;4408967;32;20491;-71
2020/12/21 18:44:54;;;;;;;10.23;5.30;;;;;;;;;;4408698;32;20178;-72
2020/12/21 18:47:22;;;;;;;10.70;5.68;;;;;;;;;;4423044;32;20245;-71
2020/12/21 18:49:48;;;;;;;11.20;6.75;;;;;;;;;;4396166;32;20085;-72
2020/12/21 18:52:16;;;;;;;;;;;;;;;;;;4408499;32;20455;-72
2020/12/21 18:54:42;;;;;;;9.00;5.32;;;;;;;;;;4395466;32;19968;-72
2020/12/21 18:57:07;;;;;;;;;;;;;;;;;;4408577;32;20089;-72
2020/12/21 18:59:33;;;;;;;9.50;5.93;;;;;;;;;;4422704;32;19976;-73
2020/12/21 19:01:59;;;;;;;10.48;5.90;;;;;;;;;;4380108;32;20141;-72
2020/12/21 19:04:25;;;;;;;;;;;;;;;;;;4378200;32;20093;-72
2020/12/21 19:06:51;;;;;;;12.43;5.47;;;;;;;;;;4378678;32;20394;-72
2020/12/21 19:09:16;;;;;;;9.20;5.10;;;;;;;;;;4378160;32;20080;-73
2020/12/21 19:11:42;;;;;;;8.23;4.82;;;;;;;;;;4378612;32;20155;-72
2020/12/21 19:14:08;;;;;;;;;;;;;;;;;;4377905;32;20078;-72
2020/12/21 19:16:34;;;;;;;10.63;5.82;;;;;;;;;;4392136;32;20048;-73
2020/12/21 19:18:59;;;;;;;;;;;;;;;;;;4365772;32;20177;-71
2020/12/21 19:21:25;;;;;;;10.38;5.53;;;;;;;;;;4378224;32;19976;-74
2020/12/21 19:23:52;;;;;;;;;;;;;;;;;;4365970;32;20575;-72
2020/12/21 19:26:20;;;;;;;10.50;5.22;;;;;;;;;;4377789;32;19965;-72
2020/12/21 19:28:46;;;;;;;9.32;5.37;;;;;;;;;;4378392;32;20070;-72
2020/12/21 19:31:12;;;;;;;9.68;5.20;;;;;;;;;;4377945;32;20073;-73
2020/12/21 19:33:38;;;;;;;;;;;;;;;;;;4365178;32;20462;-71
2020/12/21 19:36:04;;;;;;;9.68;5.28;;;;;;;;;;4390676;32;19977;-71
2020/12/21 19:38:29;;;;;;;;;;;;;;;;;;4390393;32;20112;-72
2020/12/21 19:40:58;;;;;;;9.15;5.37;;;;;;;;;;4390474;32;19973;-72
2020/12/21 19:43:24;;;;;;;9.25;5.37;;;;;;;;;;4365440;32;20074;-72
2020/12/21 19:45:50;;;;;;;;;;;;;;;;;;4386421;32;20076;-72
2020/12/21 19:48:16;;;;;;;8.90;5.03;;;;;;;;;;4405239;32;20003;-73
2020/12/21 19:50:41;;;;;;;;;;;;;;;;;;4405716;32;20077;-72
2020/12/21 19:53:07;;;;;;;10.05;5.35;;;;;;;;;;4405089;32;19973;-71
2020/12/21 19:55:33;;;;;;;9.23;5.45;;;;;;;;;;4392785;32;20085;-72
2020/12/21 19:57:59;;;;;;;8.52;5.30;;;;;;;;;;4392794;32;20157;-72
2020/12/21 20:00:25;;;;;;;;;;;;;;;;;;4405272;32;20158;-71